createdAt,value
2023-03-12T00:01:41.614Z,10.13
2023-03-12T00:04:08.154Z,11.65
2023-03-12T00:06:34.611Z,10.57
2023-03-12T00:09:02.346Z,8.57
2023-03-12T00:11:29.437Z,7.53
2023-03-12T00:14:00.216Z,8.23
2023-03-12T00:16:27.844Z,8.88
2023-03-12T00:18:55.718Z,8.93
2023-03-12T00:21:23.326Z,8.10
2023-03-12T00:23:50.441Z,7.20
2023-03-12T00:26:18.298Z,7.82
2023-03-12T00:28:45.581Z,10.00
2023-03-12T00:31:22.913Z,8.95
2023-03-12T00:33:50.278Z,8.50
2023-03-12T00:36:24.857Z,10.05
2023-03-12T00:38:53.095Z,11.98
2023-03-12T00:41:20.259Z,10.85
2023-03-12T00:43:48.182Z,9.25
2023-03-12T00:46:14.995Z,10.82
2023-03-12T00:48:41.670Z,11.43
2023-03-12T00:51:09.242Z,12.90
2023-03-12T00:53:36.423Z,13.13
2023-03-12T00:56:04.599Z,13.55
2023-03-12T00:58:31.278Z,12.90
2023-03-12T01:00:57.825Z,11.57
2023-03-12T01:03:24.525Z,16.08
2023-03-12T01:05:54.679Z,15.10
2023-03-12T01:08:22.443Z,13.27
2023-03-12T01:10:49.042Z,12.98
2023-03-12T01:13:15.856Z,11.23
2023-03-12T01:15:42.320Z,10.95
2023-03-12T01:18:09.017Z,12.18
2023-03-12T01:20:36.056Z,13.15
2023-03-12T01:23:02.533Z,14.68
2023-03-12T01:25:29.083Z,15.10
2023-03-12T01:27:55.576Z,15.05
2023-03-12T01:30:22.271Z,14.27
2023-03-12T01:32:48.855Z,12.60
2023-03-12T01:35:15.367Z,12.40
2023-03-12T01:37:41.858Z,9.32
2023-03-12T01:40:14.545Z,9.93
2023-03-12T01:42:41.009Z,10.40
2023-03-12T01:45:46.352Z,9.38
2023-03-12T01:48:13.018Z,10.90
2023-03-12T01:50:39.532Z,12.15
2023-03-12T01:53:06.008Z,8.68
2023-03-12T01:55:32.641Z,9.32
2023-03-12T01:57:59.217Z,9.85
2023-03-12T02:00:27.671Z,10.38
2023-03-12T02:02:59.773Z,9.18
2023-03-12T02:05:34.313Z,10.90
2023-03-12T02:08:00.955Z,10.75
2023-03-12T02:10:27.526Z,11.05
2023-03-12T02:12:54.353Z,15.65
2023-03-12T02:15:21.199Z,12.25
2023-03-12T02:17:47.750Z,9.48
2023-03-12T02:20:41.829Z,7.85
2023-03-12T02:23:45.413Z,8.85
2023-03-12T02:26:13.465Z,7.82
2023-03-12T02:28:44.356Z,10.25
2023-03-12T02:31:14.753Z,8.23
2023-03-12T02:33:42.014Z,9.52
2023-03-12T02:36:09.361Z,9.93
2023-03-12T02:38:45.561Z,8.68
2023-03-12T02:41:15.159Z,10.05
2023-03-12T02:43:46.064Z,9.55
2023-03-12T02:46:13.794Z,12.63
2023-03-12T02:48:40.625Z,10.73
2023-03-12T02:51:07.537Z,9.35
2023-03-12T02:53:34.116Z,10.85
2023-03-12T02:56:00.722Z,11.23
2023-03-12T02:58:27.405Z,9.43
2023-03-12T03:00:53.968Z,10.65
2023-03-12T03:03:20.514Z,11.35
2023-03-12T03:05:47.026Z,10.98
2023-03-12T03:08:13.550Z,12.38
2023-03-12T03:10:40.252Z,12.23
2023-03-12T03:13:06.734Z,12.73
2023-03-12T03:15:33.404Z,16.25
2023-03-12T03:18:03.903Z,14.77
2023-03-12T03:20:31.829Z,13.85
2023-03-12T03:22:58.407Z,11.45
2023-03-12T03:25:25.161Z,9.32
2023-03-12T03:27:51.696Z,11.77
2023-03-12T03:30:19.019Z,9.73
2023-03-12T03:32:48.080Z,9.75
2023-03-12T03:35:14.855Z,10.27
2023-03-12T03:37:41.405Z,8.55
2023-03-12T03:40:11.983Z,11.43
2023-03-12T03:42:39.962Z,12.80
2023-03-12T03:45:07.644Z,10.82
2023-03-12T03:47:34.162Z,11.35
2023-03-12T03:50:00.869Z,11.23
2023-03-12T03:52:27.288Z,10.38
2023-03-12T03:54:54.907Z,12.55
2023-03-12T03:57:21.473Z,9.80
2023-03-12T03:59:47.926Z,9.77
2023-03-12T04:02:14.486Z,12.40
2023-03-12T04:04:40.987Z,10.57
2023-03-12T04:07:07.550Z,12.35
2023-03-12T04:09:34.002Z,9.65
2023-03-12T04:12:00.458Z,8.90
2023-03-12T04:14:26.944Z,9.98
2023-03-12T04:16:53.466Z,10.05
2023-03-12T04:19:20.153Z,7.90
2023-03-12T04:21:46.671Z,7.90
2023-03-12T04:24:15.766Z,8.18
2023-03-12T04:26:42.335Z,8.65
2023-03-12T04:29:08.941Z,10.35
2023-03-12T04:31:35.578Z,9.20
2023-03-12T04:34:02.160Z,9.68
2023-03-12T04:36:29.089Z,9.45
2023-03-12T04:38:56.063Z,8.50
2023-03-12T04:41:22.912Z,10.65
2023-03-12T04:43:49.436Z,10.07
2023-03-12T04:46:15.952Z,9.02
2023-03-12T04:48:42.425Z,8.48
2023-03-12T04:51:08.979Z,10.18
2023-03-12T04:53:35.522Z,10.15
2023-03-12T04:56:02.148Z,9.45
2023-03-12T04:58:28.771Z,8.70
2023-03-12T05:00:55.312Z,9.85
2023-03-12T05:03:21.973Z,8.52
2023-03-12T05:05:48.464Z,9.23
2023-03-12T05:08:14.992Z,9.82
2023-03-12T05:10:41.709Z,9.27
2023-03-12T05:13:20.744Z,8.90
2023-03-12T05:15:51.918Z,9.50
2023-03-12T05:18:20.620Z,8.40
2023-03-12T05:20:47.940Z,8.55
2023-03-12T05:23:16.864Z,8.53
2023-03-12T05:25:43.882Z,11.07
2023-03-12T05:28:10.592Z,8.32
2023-03-12T05:30:38.986Z,9.27
2023-03-12T05:33:05.511Z,12.23
2023-03-12T05:35:32.032Z,11.98
2023-03-12T05:37:58.568Z,9.27
2023-03-12T05:40:25.061Z,12.95
2023-03-12T05:42:53.065Z,10.68
2023-03-12T05:45:19.943Z,10.48
2023-03-12T05:47:46.607Z,10.70
2023-03-12T05:50:13.392Z,11.35
2023-03-12T05:52:39.876Z,10.88
2023-03-12T05:55:07.129Z,10.77
2023-03-12T05:57:33.618Z,10.65
2023-03-12T06:00:00.101Z,12.15
2023-03-12T06:02:26.748Z,11.15
2023-03-12T06:04:53.296Z,11.73
2023-03-12T06:07:19.746Z,11.93
2023-03-12T06:09:46.244Z,10.60
2023-03-12T06:12:12.747Z,9.82
2023-03-12T06:14:39.230Z,10.05
2023-03-12T06:17:05.803Z,9.52
2023-03-12T06:19:32.256Z,11.05
2023-03-12T06:21:58.795Z,10.13
2023-03-12T06:24:25.282Z,10.70
2023-03-12T06:26:51.979Z,10.18
2023-03-12T06:29:18.538Z,9.10
2023-03-12T06:31:45.514Z,11.13
2023-03-12T06:34:12.059Z,11.85
2023-03-12T06:36:38.702Z,8.70
2023-03-12T06:39:06.533Z,9.27
2023-03-12T06:41:33.929Z,9.57
2023-03-12T06:44:03.905Z,12.52
2023-03-12T06:46:30.512Z,15.85
2023-03-12T06:48:59.538Z,14.03
2023-03-12T06:51:26.123Z,14.90
2023-03-12T06:53:52.870Z,18.65
2023-03-12T06:56:19.812Z,15.70
2023-03-12T06:58:46.280Z,18.77
2023-03-12T07:01:12.731Z,11.53
2023-03-12T07:03:39.199Z,10.63
2023-03-12T07:06:12.472Z,10.60
2023-03-12T07:08:39.062Z,10.18
2023-03-12T07:11:05.531Z,11.60
2023-03-12T07:13:32.076Z,11.27
2023-03-12T07:15:58.560Z,18.83
2023-03-12T07:18:25.301Z,16.77
2023-03-12T07:20:52.307Z,13.40
2023-03-12T07:23:18.920Z,13.45
2023-03-12T07:25:47.968Z,13.57
2023-03-12T07:28:15.225Z,14.85
2023-03-12T07:30:41.922Z,13.57
2023-03-12T07:33:11.544Z,14.98
2023-03-12T07:35:39.546Z,14.80
2023-03-12T07:38:06.671Z,14.37
2023-03-12T07:40:34.014Z,34.33
2023-03-12T07:43:01.163Z,37.22
2023-03-12T07:45:29.383Z,36.00
2023-03-12T07:47:57.274Z,22.75
2023-03-12T07:50:23.835Z,20.57
2023-03-12T07:52:50.413Z,14.10
2023-03-12T07:55:17.409Z,15.18
2023-03-12T07:57:44.534Z,20.65
2023-03-12T08:00:11.741Z,17.40
2023-03-12T08:02:38.813Z,17.67
2023-03-12T08:05:06.483Z,17.17
2023-03-12T08:07:35.198Z,16.27
2023-03-12T08:10:03.288Z,18.05
2023-03-12T08:12:30.253Z,14.57
2023-03-12T08:14:56.806Z,16.67
2023-03-12T08:17:23.802Z,16.95
2023-03-12T08:19:50.378Z,16.52
2023-03-12T08:22:17.145Z,17.55
2023-03-12T08:24:44.242Z,19.08
2023-03-12T08:27:12.369Z,16.27
2023-03-12T08:29:39.899Z,15.05
2023-03-12T08:32:07.490Z,14.88
2023-03-12T08:34:34.807Z,12.75
2023-03-12T08:37:01.893Z,13.48
2023-03-12T08:39:29.268Z,13.80
2023-03-12T08:41:55.723Z,12.93
2023-03-12T08:44:23.370Z,13.50
2023-03-12T08:46:50.511Z,14.30
2023-03-12T08:49:17.288Z,12.85
2023-03-12T08:51:43.802Z,12.43
2023-03-12T08:54:10.455Z,12.90
2023-03-12T08:56:42.531Z,13.63
2023-03-12T08:59:13.285Z,11.68
2023-03-12T09:01:43.620Z,13.43
2023-03-12T09:04:10.834Z,13.23
2023-03-12T09:06:38.641Z,12.23
2023-03-12T09:09:05.809Z,12.35
2023-03-12T09:11:34.233Z,12.30
2023-03-12T09:14:33.805Z,11.27
2023-03-12T09:16:48.617Z,12.37
2023-03-12T09:19:15.820Z,12.40
2023-03-12T09:21:42.476Z,12.43
2023-03-12T09:24:10.291Z,12.02
2023-03-12T09:26:36.810Z,12.75
2023-03-12T09:29:03.584Z,12.07
2023-03-12T09:31:30.123Z,13.52
2023-03-12T09:33:56.622Z,13.45
2023-03-12T09:36:23.138Z,13.43
2023-03-12T09:38:49.583Z,12.85
2023-03-12T09:41:23.326Z,11.40
2023-03-12T09:43:55.790Z,11.70
2023-03-12T09:46:47.379Z,12.32
2023-03-12T09:49:28.625Z,14.00
2023-03-12T09:51:58.665Z,10.65
2023-03-12T09:54:29.750Z,11.13
2023-03-12T09:57:00.534Z,21.75
2023-03-12T09:59:27.305Z,12.18
2023-03-12T10:01:59.264Z,9.10
2023-03-12T10:04:59.061Z,11.27
2023-03-12T10:07:35.219Z,12.13
2023-03-12T10:10:07.340Z,13.30
2023-03-12T10:12:52.766Z,11.23
2023-03-12T10:15:31.457Z,10.80
2023-03-12T10:18:23.940Z,12.82
2023-03-12T10:21:18.306Z,11.13
2023-03-12T10:24:08.526Z,10.23
2023-03-12T10:26:45.739Z,12.18
2023-03-12T10:29:21.307Z,11.30
2023-03-12T10:31:52.430Z,13.05
2023-03-12T10:34:43.976Z,12.00
2023-03-12T10:37:21.152Z,10.20
2023-03-12T10:39:50.107Z,11.70
2023-03-12T10:42:25.508Z,13.15
2023-03-12T10:44:55.522Z,12.48
2023-03-12T10:47:30.448Z,11.27
2023-03-12T10:50:13.997Z,11.90
2023-03-12T10:52:40.465Z,10.63
2023-03-12T10:55:32.454Z,13.20
2023-03-12T10:57:58.905Z,13.13
2023-03-12T11:00:28.284Z,12.20
2023-03-12T11:02:59.987Z,11.85
2023-03-12T11:05:33.371Z,12.07
2023-03-12T11:08:01.977Z,12.60
2023-03-12T11:10:42.657Z,13.60
2023-03-12T11:13:39.746Z,13.53
2023-03-12T11:16:18.428Z,16.73
2023-03-12T11:19:02.165Z,13.65
2023-03-12T11:21:31.505Z,14.27
2023-03-12T11:23:57.886Z,14.65
2023-03-12T11:26:49.681Z,16.43
2023-03-12T11:29:28.215Z,14.70
2023-03-12T11:32:10.647Z,15.95
2023-03-12T11:42:53.021Z,16.55
2023-03-12T11:45:47.206Z,16.90
2023-03-12T11:48:19.671Z,16.60
2023-03-12T11:50:59.730Z,15.35
2023-03-12T11:54:00.128Z,15.20
2023-03-12T11:56:30.543Z,16.42
2023-03-12T11:59:02.031Z,14.13
2023-03-12T12:01:58.357Z,21.13
2023-03-12T12:04:41.654Z,16.30
2023-03-12T12:07:17.316Z,22.17
2023-03-12T12:09:55.595Z,16.05
2023-03-12T12:12:40.368Z,14.55
2023-03-12T12:15:20.788Z,15.60
2023-03-12T12:18:00.134Z,16.42
2023-03-12T12:20:51.425Z,15.87
2023-03-12T12:23:57.948Z,15.45
2023-03-12T12:26:33.944Z,15.90
2023-03-12T12:29:20.163Z,14.07
2023-03-12T12:31:58.040Z,15.35
2023-03-12T12:34:27.553Z,15.77
2023-03-12T12:37:34.064Z,14.63
2023-03-12T12:40:12.421Z,14.27
2023-03-12T12:42:52.317Z,15.32
2023-03-12T12:45:20.827Z,14.32
2023-03-12T12:47:52.987Z,14.97
2023-03-12T12:50:24.459Z,15.80
2023-03-12T12:53:21.411Z,14.02
2023-03-12T12:56:15.567Z,14.93
2023-03-12T12:59:03.328Z,13.35
2023-03-12T13:01:31.701Z,15.10
2023-03-12T13:04:06.777Z,13.02
2023-03-12T13:06:56.752Z,14.73
2023-03-12T13:09:50.524Z,13.85
2023-03-12T13:12:25.163Z,13.65
2023-03-12T13:14:53.637Z,12.17
2023-03-12T13:17:21.234Z,17.73
2023-03-12T13:20:00.956Z,14.68
2023-03-12T13:22:40.049Z,18.75
2023-03-12T13:25:26.001Z,13.00
2023-03-12T13:28:34.919Z,14.50
2023-03-12T13:31:22.844Z,14.48
2023-03-12T13:33:51.685Z,14.98
2023-03-12T13:36:23.423Z,16.50
2023-03-12T13:39:06.287Z,14.07
2023-03-12T13:42:00.048Z,15.07
2023-03-12T13:44:26.557Z,14.68
2023-03-12T13:47:05.457Z,15.05
2023-03-12T13:49:43.751Z,17.48
2023-03-12T13:52:31.244Z,15.15
2023-03-12T13:55:13.344Z,15.87
2023-03-12T13:57:50.302Z,14.48
2023-03-12T14:00:36.320Z,16.73
2023-03-12T14:03:16.800Z,14.27
2023-03-12T14:05:48.674Z,17.15
2023-03-12T14:08:25.052Z,13.00
2023-03-12T14:11:24.898Z,13.25
2023-03-12T14:14:18.340Z,13.43
2023-03-12T14:16:51.936Z,13.82
2023-03-12T14:19:30.513Z,13.32
2023-03-12T14:22:00.033Z,14.20
2023-03-12T14:24:34.321Z,13.27
2023-03-12T14:27:04.060Z,16.42
2023-03-12T14:29:33.466Z,14.10
2023-03-12T14:32:04.755Z,13.23
2023-03-12T14:34:39.126Z,12.87
2023-03-12T14:37:23.859Z,13.90
2023-03-12T14:40:01.581Z,13.40
2023-03-12T14:42:37.424Z,12.80
2023-03-12T14:45:27.204Z,14.10
2023-03-12T14:47:57.093Z,14.57
2023-03-12T14:50:29.763Z,13.23
2023-03-12T14:53:13.982Z,11.45
2023-03-12T14:55:40.628Z,11.73
2023-03-12T14:58:18.868Z,12.82
2023-03-12T15:00:55.301Z,12.30
2023-03-12T15:03:21.811Z,14.07
2023-03-12T15:05:49.473Z,13.13
2023-03-12T15:08:18.747Z,11.18
2023-03-12T15:10:51.282Z,12.68
2023-03-12T15:13:20.461Z,10.50
2023-03-12T15:15:50.211Z,12.70
2023-03-12T15:18:25.693Z,10.88
2023-03-12T15:20:53.875Z,13.30
2023-03-12T15:23:22.598Z,11.43
2023-03-12T15:26:08.958Z,13.07
2023-03-12T15:28:36.347Z,11.50
2023-03-12T15:31:12.060Z,11.63
2023-03-12T15:33:40.212Z,11.60
2023-03-12T15:36:28.303Z,12.45
2023-03-12T15:39:05.874Z,11.00
2023-03-12T15:41:45.526Z,12.57
2023-03-12T15:44:24.057Z,14.43
2023-03-12T15:46:54.664Z,14.55
2023-03-12T15:49:34.321Z,12.50
2023-03-12T15:52:03.438Z,15.27
2023-03-12T15:54:31.329Z,15.95
2023-03-12T15:57:19.548Z,16.08
2023-03-12T15:59:51.229Z,15.00
2023-03-12T16:02:35.575Z,12.88
2023-03-12T16:05:02.408Z,15.63
2023-03-12T16:07:28.917Z,15.93
2023-03-12T16:09:55.564Z,16.33
2023-03-12T16:12:22.184Z,16.27
2023-03-12T16:14:49.358Z,15.93
2023-03-12T16:17:22.065Z,15.57
2023-03-12T16:19:49.002Z,18.30
2023-03-12T16:22:15.717Z,16.33
2023-03-12T16:24:42.205Z,15.68
2023-03-12T16:27:17.952Z,19.98
2023-03-12T16:29:47.387Z,23.73
2023-03-12T16:32:17.510Z,24.38
2023-03-12T16:34:45.247Z,30.58
2023-03-12T16:37:12.765Z,28.83
2023-03-12T16:39:39.608Z,28.33
2023-03-12T16:42:15.430Z,27.33
2023-03-12T16:44:44.005Z,27.50
2023-03-12T16:47:13.585Z,26.38
2023-03-12T16:49:40.193Z,27.40
2023-03-12T16:52:17.213Z,31.05
2023-03-12T16:54:43.730Z,32.73
2023-03-12T16:57:35.111Z,35.63
2023-03-12T17:00:02.728Z,29.30
2023-03-12T17:02:29.917Z,18.40
2023-03-12T17:04:56.759Z,19.45
2023-03-12T17:07:24.047Z,20.10
2023-03-12T17:09:50.578Z,18.48
2023-03-12T17:12:25.383Z,20.85
2023-03-12T17:14:51.911Z,26.02
2023-03-12T17:17:18.443Z,20.85
2023-03-12T17:19:45.133Z,19.90
2023-03-12T17:22:11.637Z,19.88
2023-03-12T17:24:39.264Z,23.33
2023-03-12T17:27:05.735Z,23.80
2023-03-12T17:29:32.765Z,198.13
2023-03-12T17:31:59.396Z,383.63
2023-03-12T17:34:25.854Z,232.82
2023-03-12T17:36:52.291Z,84.32
2023-03-12T17:39:18.790Z,68.60
2023-03-12T17:41:45.284Z,45.55
2023-03-12T17:44:13.831Z,67.47
2023-03-12T17:46:47.007Z,41.20
2023-03-12T17:49:19.418Z,49.47
2023-03-12T17:51:45.877Z,35.85
2023-03-12T17:54:12.670Z,36.00
2023-03-12T17:56:39.213Z,30.77
2023-03-12T17:59:05.985Z,28.98
2023-03-12T18:01:32.658Z,24.38
2023-03-12T18:03:59.098Z,22.42
2023-03-12T18:06:25.663Z,32.22
2023-03-12T18:08:52.165Z,19.47
2023-03-12T18:11:18.759Z,22.88
2023-03-12T18:13:48.063Z,21.23
2023-03-12T18:16:18.330Z,19.92
2023-03-12T18:18:44.901Z,20.85
2023-03-12T18:21:11.841Z,20.00
2023-03-12T18:23:38.335Z,19.73
2023-03-12T18:26:05.633Z,19.48
2023-03-12T18:28:32.198Z,17.80
2023-03-12T18:30:58.757Z,15.25
2023-03-12T18:33:25.387Z,13.17
2023-03-12T18:35:54.375Z,15.18
2023-03-12T18:38:21.201Z,13.60
2023-03-12T18:40:48.044Z,13.48
2023-03-12T18:43:14.752Z,12.05
2023-03-12T18:45:43.645Z,13.10
2023-03-12T18:48:10.444Z,15.90
2023-03-12T18:50:37.776Z,15.65
2023-03-12T18:53:04.488Z,13.73
2023-03-12T18:55:32.203Z,15.43
2023-03-12T18:57:58.736Z,18.53
2023-03-12T19:00:25.284Z,17.23
2023-03-12T19:02:51.909Z,15.60
2023-03-12T19:05:21.297Z,12.68
2023-03-12T19:07:47.845Z,12.40
2023-03-12T19:10:15.349Z,12.67
2023-03-12T19:12:52.046Z,12.88
2023-03-12T19:15:20.582Z,13.10
2023-03-12T19:17:47.050Z,14.13
2023-03-12T19:20:14.234Z,14.52
2023-03-12T19:22:40.713Z,11.97
2023-03-12T19:25:07.698Z,13.90
2023-03-12T19:27:34.144Z,14.13
2023-03-12T19:30:00.820Z,17.83
2023-03-12T19:32:33.271Z,17.77
2023-03-12T19:35:11.049Z,15.63
2023-03-12T19:37:37.517Z,25.90
2023-03-12T19:40:05.955Z,33.30
2023-03-12T19:42:33.138Z,36.22
2023-03-12T19:44:59.787Z,34.13
2023-03-12T19:47:26.832Z,19.50
2023-03-12T19:49:53.817Z,14.98
2023-03-12T19:52:20.430Z,11.65
2023-03-12T19:54:54.678Z,25.08
2023-03-12T19:57:29.823Z,18.10
2023-03-12T19:59:56.374Z,25.60
2023-03-12T20:02:24.394Z,26.63
2023-03-12T20:04:50.898Z,23.08
2023-03-12T20:07:18.591Z,14.60
2023-03-12T20:09:45.214Z,13.15
2023-03-12T20:12:11.676Z,16.07
2023-03-12T20:14:39.069Z,19.52
2023-03-12T20:17:06.949Z,25.17
2023-03-12T20:19:33.524Z,20.73
2023-03-12T20:22:00.135Z,16.10
2023-03-12T20:24:26.969Z,17.13
2023-03-12T20:26:53.506Z,17.27
2023-03-12T20:29:19.978Z,17.98
2023-03-12T20:31:46.536Z,20.02
2023-03-12T20:34:13.086Z,17.15
2023-03-12T20:36:39.596Z,15.43
2023-03-12T20:39:06.127Z,15.73
2023-03-12T20:41:33.729Z,13.82
2023-03-12T20:44:00.403Z,13.48
2023-03-12T20:46:27.136Z,12.10
2023-03-12T20:48:56.243Z,11.33
2023-03-12T20:51:23.274Z,10.55
2023-03-12T20:53:49.820Z,12.40
2023-03-12T20:56:16.391Z,10.80
2023-03-12T20:58:42.876Z,14.02
2023-03-12T21:01:10.842Z,10.50
2023-03-12T21:03:37.602Z,10.45
2023-03-12T21:06:04.334Z,11.80
2023-03-12T21:08:31.073Z,11.10
2023-03-12T21:10:57.825Z,8.43
2023-03-12T21:13:24.372Z,8.13
2023-03-12T21:15:51.134Z,7.10
2023-03-12T21:18:18.541Z,10.32
2023-03-12T21:20:45.208Z,9.38
2023-03-12T21:23:12.062Z,8.48
2023-03-12T21:25:40.301Z,8.37
2023-03-12T21:28:08.747Z,8.80
2023-03-12T21:30:35.280Z,7.80
2023-03-12T21:33:02.689Z,6.60
2023-03-12T21:35:29.332Z,8.35
2023-03-12T21:37:56.374Z,7.60
2023-03-12T21:40:23.967Z,8.77
2023-03-12T21:42:50.857Z,7.88
2023-03-12T21:45:17.616Z,9.05
2023-03-12T21:47:44.258Z,9.00
2023-03-12T21:50:11.659Z,7.47
2023-03-12T21:52:42.872Z,8.43
2023-03-12T21:55:10.714Z,9.73
2023-03-12T21:57:37.997Z,9.40
2023-03-12T22:00:06.001Z,9.90
2023-03-12T22:02:32.681Z,8.73
2023-03-12T22:05:00.595Z,9.10
2023-03-12T22:07:29.971Z,7.93
2023-03-12T22:09:57.057Z,8.50
2023-03-12T22:12:23.641Z,9.43
2023-03-12T22:14:50.136Z,6.40
2023-03-12T22:17:17.310Z,7.05
2023-03-12T22:19:44.345Z,7.65
2023-03-12T22:22:10.865Z,8.35
2023-03-12T22:24:37.662Z,7.40
2023-03-12T22:27:07.596Z,7.43
2023-03-12T22:29:34.890Z,7.28
2023-03-12T22:32:02.038Z,8.15
2023-03-12T22:34:29.732Z,8.20
2023-03-12T22:36:56.433Z,9.90
2023-03-12T22:39:23.301Z,8.20
2023-03-12T22:41:53.786Z,7.85
2023-03-12T22:44:20.478Z,6.57
2023-03-12T22:46:46.963Z,7.95
2023-03-12T22:49:15.013Z,6.75
2023-03-12T22:51:41.910Z,8.23
2023-03-12T22:54:08.410Z,6.50
2023-03-12T22:56:34.988Z,8.05
2023-03-12T22:59:01.496Z,7.50
2023-03-12T23:01:28.405Z,8.48
2023-03-12T23:03:55.002Z,8.73
2023-03-12T23:06:24.182Z,9.27
2023-03-12T23:08:51.678Z,8.13
2023-03-12T23:11:19.135Z,7.60
2023-03-12T23:13:46.919Z,8.15
2023-03-12T23:16:17.209Z,6.40
2023-03-12T23:18:44.686Z,7.90
2023-03-12T23:21:14.536Z,5.65
2023-03-12T23:23:44.945Z,8.63
2023-03-12T23:26:20.910Z,10.27
2023-03-12T23:28:47.716Z,7.13
2023-03-12T23:31:15.855Z,8.77
2023-03-12T23:33:43.361Z,7.07
2023-03-12T23:36:18.460Z,5.00
2023-03-12T23:38:45.843Z,8.13
2023-03-12T23:41:15.692Z,9.03
2023-03-12T23:43:42.983Z,6.68
2023-03-12T23:46:10.847Z,7.20
2023-03-12T23:48:38.675Z,7.10
2023-03-12T23:51:08.173Z,8.40
2023-03-12T23:53:36.146Z,9.30
2023-03-12T23:56:04.625Z,6.35
2023-03-12T23:58:31.421Z,7.00
